createdAt,value
2018-01-25T00:02:05.779Z,3.13
2018-01-25T00:04:33.352Z,3.40
2018-01-25T00:07:00.936Z,3.40
2018-01-25T00:09:28.483Z,3.53
2018-01-25T00:11:56.040Z,3.60
2018-01-25T00:14:23.606Z,3.47
2018-01-25T00:16:51.256Z,3.63
2018-01-25T00:19:18.848Z,3.40
2018-01-25T00:21:46.417Z,3.97
2018-01-25T00:24:13.943Z,3.83
2018-01-25T00:26:41.494Z,4.13
2018-01-25T00:29:09.125Z,3.70
2018-01-25T00:31:37.082Z,3.70
2018-01-25T00:34:05.074Z,3.67
2018-01-25T00:36:32.614Z,3.40
2018-01-25T00:39:00.555Z,3.77
2018-01-25T00:41:28.120Z,3.53
2018-01-25T00:43:55.690Z,3.10
2018-01-25T00:46:23.638Z,4.07
2018-01-25T00:48:51.216Z,3.60
2018-01-25T00:51:19.222Z,3.47
2018-01-25T00:53:46.810Z,3.37
2018-01-25T00:56:14.366Z,3.33
2018-01-25T00:58:42.002Z,3.50
2018-01-25T01:01:09.609Z,3.60
2018-01-25T01:03:37.183Z,3.90
2018-01-25T01:06:05.177Z,3.30
2018-01-25T01:08:32.711Z,3.57
2018-01-25T01:11:00.703Z,3.60
2018-01-25T01:13:28.263Z,3.67
2018-01-25T01:15:55.803Z,3.07
2018-01-25T01:18:23.770Z,3.20
2018-01-25T01:20:51.336Z,3.13
2018-01-25T01:23:18.887Z,2.20
2018-01-25T01:25:46.475Z,2.53
2018-01-25T01:28:14.019Z,2.60
2018-01-25T01:30:41.563Z,2.40
2018-01-25T01:33:09.167Z,2.50
2018-01-25T01:35:36.767Z,2.77
2018-01-25T01:38:04.753Z,2.80
2018-01-25T01:40:32.328Z,3.00
2018-01-25T01:42:59.890Z,3.40
2018-01-25T01:45:27.506Z,3.07
2018-01-25T01:47:55.052Z,2.70
2018-01-25T01:50:22.649Z,2.70
2018-01-25T01:52:50.255Z,2.80
2018-01-25T01:55:17.778Z,2.40
2018-01-25T01:57:45.410Z,2.73
2018-01-25T02:00:13.380Z,2.40
2018-01-25T02:02:41.335Z,2.30
2018-01-25T02:05:08.961Z,2.70
2018-01-25T02:07:36.483Z,3.00
2018-01-25T02:10:04.019Z,3.87
2018-01-25T02:12:32.007Z,3.77
2018-01-25T02:14:59.570Z,3.03
2018-01-25T02:17:27.171Z,3.50
2018-01-25T02:19:54.799Z,3.73
2018-01-25T02:22:22.365Z,3.27
2018-01-25T02:24:49.933Z,3.03
2018-01-25T02:27:17.565Z,2.87
2018-01-25T02:29:45.116Z,3.03
2018-01-25T02:32:12.668Z,3.47
2018-01-25T02:34:40.244Z,3.80
2018-01-25T02:37:07.774Z,3.50
2018-01-25T02:39:35.785Z,4.63
2018-01-25T02:42:03.361Z,4.37
2018-01-25T02:44:30.878Z,4.23
2018-01-25T02:46:58.453Z,4.10
2018-01-25T02:49:26.085Z,3.67
2018-01-25T02:51:53.669Z,4.00
2018-01-25T02:54:21.272Z,4.07
2018-01-25T02:56:48.915Z,3.93
2018-01-25T02:59:16.542Z,3.47
2018-01-25T03:01:44.114Z,3.90
2018-01-25T03:04:11.684Z,3.57
2018-01-25T03:06:39.234Z,3.73
2018-01-25T03:09:06.795Z,3.30
2018-01-25T03:11:34.410Z,3.13
2018-01-25T03:14:01.992Z,2.80
2018-01-25T03:16:29.592Z,2.70
2018-01-25T03:18:57.144Z,2.80
2018-01-25T03:21:24.691Z,2.60
2018-01-25T03:23:52.305Z,2.40
2018-01-25T03:26:19.814Z,1.80
2018-01-25T03:28:47.423Z,2.17
2018-01-25T03:31:15.030Z,2.00
2018-01-25T03:33:42.596Z,1.90
2018-01-25T03:36:10.153Z,1.83
2018-01-25T03:38:37.782Z,2.03
2018-01-25T03:41:05.348Z,1.97
2018-01-25T03:43:32.921Z,2.10
2018-01-25T03:46:00.440Z,1.90
2018-01-25T03:48:28.465Z,2.10
2018-01-25T03:50:56.024Z,1.90
2018-01-25T03:53:23.586Z,2.00
2018-01-25T03:55:51.204Z,1.77
2018-01-25T03:58:18.752Z,1.77
2018-01-25T04:00:46.283Z,2.00
2018-01-25T04:03:14.308Z,1.97
2018-01-25T04:05:41.881Z,2.10
2018-01-25T04:08:09.432Z,1.87
2018-01-25T04:10:36.989Z,1.97
2018-01-25T04:13:04.587Z,2.10
2018-01-25T04:15:32.561Z,2.10
2018-01-25T04:18:00.167Z,1.80
2018-01-25T04:20:27.694Z,1.90
2018-01-25T04:22:55.262Z,1.70
2018-01-25T04:25:22.819Z,1.53
2018-01-25T04:27:50.344Z,1.90
2018-01-25T04:30:18.339Z,1.70
2018-01-25T04:32:45.962Z,1.93
2018-01-25T04:35:13.562Z,1.80
2018-01-25T04:37:41.112Z,2.10
2018-01-25T04:40:08.666Z,1.80
2018-01-25T04:42:36.630Z,1.83
2018-01-25T04:45:04.547Z,1.83
2018-01-25T04:47:32.115Z,1.80
2018-01-25T04:49:59.710Z,1.77
2018-01-25T04:52:27.607Z,2.10
2018-01-25T04:54:55.139Z,2.00
2018-01-25T04:57:22.752Z,2.00
2018-01-25T04:59:50.241Z,2.47
2018-01-25T05:02:18.242Z,2.50
2018-01-25T05:04:45.879Z,2.20
2018-01-25T05:07:13.834Z,2.30
2018-01-25T05:09:41.423Z,2.43
2018-01-25T05:12:08.950Z,2.43
2018-01-25T05:14:36.519Z,2.20
2018-01-25T05:17:20.239Z,2.70
2018-01-25T05:19:47.785Z,2.63
2018-01-25T05:22:15.338Z,2.93
2018-01-25T05:24:42.860Z,3.07
2018-01-25T05:27:10.419Z,3.17
2018-01-25T05:29:38.002Z,2.90
2018-01-25T05:32:05.549Z,3.00
2018-01-25T05:34:33.069Z,3.33
2018-01-25T05:37:01.011Z,2.97
2018-01-25T05:39:28.575Z,2.63
2018-01-25T05:41:56.099Z,2.80
2018-01-25T05:44:23.653Z,2.67
2018-01-25T05:46:51.286Z,2.83
2018-01-25T05:49:18.851Z,2.53
2018-01-25T05:51:46.322Z,2.40
2018-01-25T05:54:13.955Z,2.20
2018-01-25T05:56:41.467Z,2.40
2018-01-25T05:59:09.066Z,2.77
2018-01-25T06:01:36.629Z,2.60
2018-01-25T06:04:04.200Z,3.10
2018-01-25T06:06:31.819Z,2.80
2018-01-25T06:08:59.413Z,2.80
2018-01-25T06:11:27.021Z,2.40
2018-01-25T06:13:54.551Z,3.00
2018-01-25T06:16:23.352Z,2.87
2018-01-25T06:18:50.964Z,2.70
2018-01-25T06:21:18.900Z,2.70
2018-01-25T06:23:46.494Z,2.60
2018-01-25T06:26:14.109Z,3.17
2018-01-25T06:28:41.636Z,2.70
2018-01-25T06:31:09.251Z,3.27
2018-01-25T06:33:37.206Z,3.20
2018-01-25T06:36:04.763Z,3.43
2018-01-25T06:38:32.371Z,3.57
2018-01-25T06:40:59.890Z,3.70
2018-01-25T06:43:27.886Z,4.17
2018-01-25T06:45:55.514Z,2.77
2018-01-25T06:48:23.607Z,2.57
2018-01-25T06:50:51.182Z,3.00
2018-01-25T06:53:18.845Z,3.17
2018-01-25T06:55:46.356Z,2.90
2018-01-25T06:58:13.964Z,3.20
2018-01-25T07:00:41.599Z,2.70
2018-01-25T07:03:09.243Z,3.23
2018-01-25T07:05:36.832Z,3.50
2018-01-25T07:08:04.491Z,3.53
2018-01-25T07:10:32.028Z,3.67
2018-01-25T07:13:00.033Z,3.60
2018-01-25T07:15:27.624Z,3.20
2018-01-25T07:17:55.171Z,3.17
2018-01-25T07:20:22.716Z,3.70
2018-01-25T07:22:50.311Z,3.40
2018-01-25T07:25:17.848Z,3.60
2018-01-25T07:27:45.460Z,4.03
2018-01-25T07:30:13.027Z,2.70
2018-01-25T07:32:40.552Z,3.33
2018-01-25T07:35:08.215Z,3.63
2018-01-25T07:37:35.759Z,3.47
2018-01-25T07:40:03.346Z,3.60
2018-01-25T07:42:31.390Z,4.23
2018-01-25T07:44:58.986Z,3.97
2018-01-25T07:47:26.528Z,3.53
2018-01-25T07:49:54.500Z,3.33
2018-01-25T07:52:22.520Z,3.00
2018-01-25T07:54:50.124Z,3.27
2018-01-25T07:57:23.298Z,3.80
2018-01-25T07:59:50.834Z,3.87
2018-01-25T08:02:23.963Z,3.43
2018-01-25T08:04:51.890Z,2.83
2018-01-25T08:07:19.490Z,3.13
2018-01-25T08:09:47.517Z,2.70
2018-01-25T08:12:15.081Z,2.40
2018-01-25T08:14:42.647Z,2.83
2018-01-25T08:17:10.293Z,2.80
2018-01-25T08:19:37.855Z,3.23
2018-01-25T08:22:05.572Z,2.97
2018-01-25T08:24:33.218Z,2.90
2018-01-25T08:27:00.807Z,3.20
2018-01-25T08:29:28.395Z,2.73
2018-01-25T08:31:55.964Z,2.87
2018-01-25T08:34:23.561Z,3.00
2018-01-25T08:36:51.548Z,2.70
2018-01-25T08:39:19.060Z,3.53
2018-01-25T08:41:46.612Z,3.53
2018-01-25T08:44:14.197Z,2.83
2018-01-25T08:46:42.199Z,2.37
2018-01-25T08:49:09.755Z,3.50
2018-01-25T08:51:37.326Z,4.53
2018-01-25T08:54:04.930Z,6.03
2018-01-25T08:56:32.521Z,6.63
2018-01-25T08:59:00.094Z,6.00
2018-01-25T09:01:27.692Z,7.70
2018-01-25T09:03:55.227Z,7.53
2018-01-25T09:06:22.844Z,5.43
2018-01-25T09:08:50.446Z,4.77
2018-01-25T09:11:19.088Z,4.83
2018-01-25T09:13:46.641Z,6.53
2018-01-25T09:16:14.659Z,5.77
2018-01-25T09:18:42.223Z,5.63
2018-01-25T09:21:09.822Z,4.60
2018-01-25T09:23:37.804Z,4.70
2018-01-25T09:26:05.348Z,6.77
2018-01-25T09:28:32.892Z,7.77
2018-01-25T09:31:00.401Z,6.67
2018-01-25T09:33:28.030Z,4.73
2018-01-25T09:35:55.593Z,4.50
2018-01-25T09:38:23.147Z,3.80
2018-01-25T09:40:50.761Z,3.50
2018-01-25T09:43:18.401Z,4.03
2018-01-25T09:45:46.295Z,4.37
2018-01-25T09:48:13.823Z,4.03
2018-01-25T09:50:41.528Z,3.60
2018-01-25T09:53:09.040Z,3.60
2018-01-25T09:55:36.586Z,4.40
2018-01-25T09:58:04.149Z,4.43
2018-01-25T10:00:31.771Z,4.10
2018-01-25T10:02:59.339Z,4.13
2018-01-25T10:05:27.283Z,4.60
2018-01-25T10:07:54.838Z,4.17
2018-01-25T10:10:22.381Z,3.70
2018-01-25T10:12:50.104Z,3.20
2018-01-25T10:15:17.662Z,3.50
2018-01-25T10:17:45.291Z,2.90
2018-01-25T10:20:13.276Z,3.60
2018-01-25T10:22:41.250Z,3.27
2018-01-25T10:25:08.774Z,3.40
2018-01-25T10:27:36.315Z,2.60
2018-01-25T10:30:03.949Z,3.17
2018-01-25T10:32:31.538Z,2.67
2018-01-25T10:34:59.051Z,2.40
2018-01-25T10:37:26.675Z,2.70
2018-01-25T10:39:54.247Z,3.40
2018-01-25T10:42:23.052Z,3.97
2018-01-25T10:44:50.654Z,5.67
2018-01-25T10:47:18.175Z,4.23
2018-01-25T10:49:45.706Z,4.17
2018-01-25T10:52:13.327Z,3.80
2018-01-25T10:54:40.952Z,3.40
2018-01-25T10:57:08.535Z,2.30
2018-01-25T10:59:36.150Z,2.33
2018-01-25T11:02:09.778Z,2.83
2018-01-25T11:04:37.414Z,2.93
2018-01-25T11:07:05.908Z,3.07
2018-01-25T11:09:33.514Z,3.40
2018-01-25T11:12:01.126Z,2.97
2018-01-25T11:14:28.692Z,2.63
2018-01-25T11:16:56.274Z,2.70
2018-01-25T11:19:23.914Z,2.50
2018-01-25T11:21:51.474Z,2.77
2018-01-25T11:24:19.012Z,2.97
2018-01-25T11:26:47.026Z,3.73
2018-01-25T11:29:14.591Z,4.73
2018-01-25T11:31:42.198Z,3.93
2018-01-25T11:34:09.807Z,3.90
2018-01-25T11:36:37.342Z,4.10
2018-01-25T11:39:04.928Z,3.50
2018-01-25T11:41:32.526Z,3.70
2018-01-25T11:44:00.083Z,4.10
2018-01-25T11:46:28.049Z,3.90
2018-01-25T11:48:55.625Z,4.30
2018-01-25T11:51:23.230Z,4.10
2018-01-25T11:53:50.832Z,4.03
2018-01-25T11:56:18.862Z,4.00
2018-01-25T11:58:46.390Z,4.07
2018-01-25T12:01:14.006Z,3.87
2018-01-25T12:03:41.525Z,4.07
2018-01-25T12:06:09.166Z,4.20
2018-01-25T12:08:36.704Z,3.77
2018-01-25T12:11:04.262Z,4.07
2018-01-25T12:13:31.862Z,4.03
2018-01-25T12:15:59.446Z,4.00
2018-01-25T12:18:27.018Z,4.20
2018-01-25T12:20:54.644Z,4.30
2018-01-25T12:23:22.207Z,4.50
2018-01-25T12:25:49.750Z,4.37
2018-01-25T12:28:17.355Z,4.60
2018-01-25T12:30:45.294Z,4.73
2018-01-25T12:33:12.842Z,4.50
2018-01-25T12:35:40.369Z,5.07
2018-01-25T12:38:07.937Z,4.97
2018-01-25T12:40:35.525Z,4.70
2018-01-25T12:43:03.094Z,5.20
2018-01-25T12:45:30.702Z,5.10
2018-01-25T12:47:58.339Z,4.37
2018-01-25T12:50:26.312Z,4.47
2018-01-25T12:52:53.851Z,4.60
2018-01-25T12:55:21.522Z,4.67
2018-01-25T12:57:49.470Z,4.43
2018-01-25T13:00:17.035Z,4.60
2018-01-25T13:02:45.749Z,4.13
2018-01-25T13:05:13.820Z,4.27
2018-01-25T13:07:41.381Z,4.77
2018-01-25T13:10:08.974Z,5.07
2018-01-25T13:12:36.540Z,5.30
2018-01-25T13:15:04.060Z,4.10
2018-01-25T13:17:31.663Z,4.17
2018-01-25T13:19:59.221Z,4.17
2018-01-25T13:22:26.835Z,3.83
2018-01-25T13:24:54.414Z,4.37
2018-01-25T13:27:22.040Z,4.30
2018-01-25T13:29:49.983Z,3.90
2018-01-25T13:32:19.231Z,4.30
2018-01-25T13:34:46.826Z,4.13
2018-01-25T13:37:14.385Z,4.00
2018-01-25T13:39:42.005Z,4.07
2018-01-25T13:42:09.586Z,3.73
2018-01-25T13:44:37.294Z,3.53
2018-01-25T13:47:04.863Z,4.33
2018-01-25T13:49:32.791Z,3.80
2018-01-25T13:52:00.288Z,3.90
2018-01-25T13:54:28.254Z,4.60
2018-01-25T13:56:56.205Z,4.40
2018-01-25T13:59:23.750Z,4.00
2018-01-25T14:01:51.359Z,4.93
2018-01-25T14:04:18.997Z,4.63
2018-01-25T14:06:46.938Z,4.60
2018-01-25T14:09:14.471Z,4.60
2018-01-25T14:11:42.086Z,5.33
2018-01-25T14:14:10.023Z,5.50
2018-01-25T14:16:37.576Z,5.00
2018-01-25T14:19:05.126Z,6.03
2018-01-25T14:21:32.715Z,5.37
2018-01-25T14:24:00.690Z,5.27
2018-01-25T14:26:28.665Z,5.03
2018-01-25T14:28:56.654Z,5.33
2018-01-25T14:31:24.262Z,5.10
2018-01-25T14:33:51.853Z,5.23
2018-01-25T14:36:19.366Z,5.13
2018-01-25T14:38:46.993Z,5.30
2018-01-25T14:41:14.585Z,5.83
2018-01-25T14:43:42.134Z,5.33
2018-01-25T14:46:09.752Z,5.30
2018-01-25T14:48:37.355Z,5.50
2018-01-25T14:51:04.904Z,5.90
2018-01-25T14:53:32.486Z,5.77
2018-01-25T14:56:00.060Z,6.37
2018-01-25T14:58:27.645Z,6.07
2018-01-25T15:00:55.230Z,6.33
2018-01-25T15:03:22.761Z,7.37
2018-01-25T15:05:50.343Z,6.37
2018-01-25T15:08:17.899Z,5.60
2018-01-25T15:10:45.517Z,5.60
2018-01-25T15:13:13.463Z,5.90
2018-01-25T15:15:41.035Z,6.03
2018-01-25T15:18:08.722Z,6.13
2018-01-25T15:20:36.299Z,6.30
2018-01-25T15:23:03.863Z,5.87
2018-01-25T15:25:36.926Z,5.80
2018-01-25T15:28:04.492Z,5.47
2018-01-25T15:30:32.147Z,6.50
2018-01-25T15:33:00.156Z,5.37
2018-01-25T15:35:27.692Z,6.97
2018-01-25T15:37:55.279Z,6.53
2018-01-25T15:40:22.906Z,6.13
2018-01-25T15:42:50.468Z,6.20
2018-01-25T15:45:18.046Z,6.20
2018-01-25T15:47:45.602Z,6.40
2018-01-25T15:50:13.215Z,6.50
2018-01-25T15:52:41.272Z,5.77
2018-01-25T15:55:08.863Z,6.37
2018-01-25T15:57:36.481Z,5.97
2018-01-25T16:00:04.499Z,5.67
2018-01-25T16:02:32.015Z,6.47
2018-01-25T16:04:59.602Z,6.50
2018-01-25T16:07:27.543Z,6.50
2018-01-25T16:09:55.149Z,6.87
2018-01-25T16:12:22.707Z,6.50
2018-01-25T16:14:50.358Z,7.73
2018-01-25T16:17:17.898Z,7.13
2018-01-25T16:19:45.890Z,7.10
2018-01-25T16:22:13.589Z,6.63
2018-01-25T16:24:41.115Z,6.73
2018-01-25T16:27:08.690Z,7.17
2018-01-25T16:29:36.238Z,7.40
2018-01-25T16:32:03.812Z,7.03
2018-01-25T16:34:31.320Z,6.50
2018-01-25T16:36:59.327Z,6.93
2018-01-25T16:39:26.899Z,6.47
2018-01-25T16:41:54.526Z,7.17
2018-01-25T16:44:22.154Z,6.33
2018-01-25T16:46:50.127Z,7.13
2018-01-25T16:49:17.720Z,7.83
2018-01-25T16:51:45.338Z,6.93
2018-01-25T16:54:13.301Z,6.70
2018-01-25T16:56:40.872Z,7.03
2018-01-25T16:59:08.872Z,6.67
2018-01-25T17:01:36.396Z,6.70
2018-01-25T17:04:04.421Z,8.10
2018-01-25T17:06:32.030Z,7.20
2018-01-25T17:09:00.021Z,8.07
2018-01-25T17:11:27.617Z,7.87
2018-01-25T17:13:55.187Z,7.93
2018-01-25T17:16:22.812Z,7.33
2018-01-25T17:18:50.436Z,8.30
2018-01-25T17:21:18.017Z,8.63
2018-01-25T17:23:45.616Z,7.93
2018-01-25T17:26:13.162Z,8.57
2018-01-25T17:28:40.804Z,7.73
2018-01-25T17:31:08.438Z,7.90
2018-01-25T17:33:36.440Z,6.93
2018-01-25T17:36:04.084Z,8.20
2018-01-25T17:38:31.620Z,10.67
2018-01-25T17:40:59.567Z,8.30
2018-01-25T17:43:27.207Z,9.60
2018-01-25T17:45:54.847Z,7.60
2018-01-25T17:48:22.420Z,8.20
2018-01-25T17:50:49.947Z,8.43
2018-01-25T17:53:17.480Z,8.43
2018-01-25T17:55:45.440Z,8.53
2018-01-25T17:58:13.040Z,8.20
2018-01-25T18:00:40.626Z,8.13
2018-01-25T18:03:08.155Z,8.30
2018-01-25T18:05:35.747Z,7.73
2018-01-25T18:08:03.328Z,7.60
2018-01-25T18:10:30.852Z,7.07
2018-01-25T18:12:58.585Z,7.57
2018-01-25T18:15:26.092Z,7.77
2018-01-25T18:17:53.695Z,7.63
2018-01-25T18:20:21.283Z,7.70
2018-01-25T18:22:48.847Z,7.93
2018-01-25T18:25:16.410Z,7.30
2018-01-25T18:27:43.932Z,7.63
2018-01-25T18:30:11.485Z,7.63
2018-01-25T18:32:39.032Z,7.93
2018-01-25T18:35:06.656Z,7.67
2018-01-25T18:37:34.184Z,7.90
2018-01-25T18:40:01.708Z,8.60
2018-01-25T18:42:29.697Z,8.97
2018-01-25T18:44:57.204Z,7.80
2018-01-25T18:47:24.711Z,8.27
2018-01-25T18:49:52.294Z,7.43
2018-01-25T18:52:19.811Z,7.57
2018-01-25T18:54:47.335Z,6.90
2018-01-25T18:57:14.892Z,7.40
2018-01-25T18:59:42.500Z,7.20
2018-01-25T19:02:10.068Z,5.90
2018-01-25T19:04:37.702Z,6.40
2018-01-25T19:07:05.706Z,6.27
2018-01-25T19:09:33.347Z,6.97
2018-01-25T19:12:00.903Z,7.90
2018-01-25T19:14:28.470Z,7.53
2018-01-25T19:16:56.005Z,7.83
2018-01-25T19:19:23.530Z,7.73
2018-01-25T19:21:51.128Z,7.47
2018-01-25T19:24:18.686Z,7.53
2018-01-25T19:26:46.290Z,7.33
2018-01-25T19:29:13.807Z,7.53
2018-01-25T19:31:41.331Z,6.87
2018-01-25T19:34:08.947Z,7.03
2018-01-25T19:36:36.482Z,7.10
2018-01-25T19:39:04.048Z,6.07
2018-01-25T19:41:31.739Z,6.83
2018-01-25T19:43:59.314Z,6.57
2018-01-25T19:46:26.895Z,7.33
2018-01-25T19:48:54.910Z,6.13
2018-01-25T19:51:22.458Z,6.23
2018-01-25T19:53:50.025Z,6.60
2018-01-25T19:56:17.603Z,6.03
2018-01-25T19:58:45.167Z,6.17
2018-01-25T20:01:12.723Z,6.63
2018-01-25T20:03:40.317Z,6.63
2018-01-25T20:06:08.248Z,5.83
2018-01-25T20:08:35.763Z,6.70
2018-01-25T20:11:03.348Z,6.83
2018-01-25T20:13:30.922Z,6.13
2018-01-25T20:15:58.522Z,6.20
2018-01-25T20:18:26.525Z,6.77
2018-01-25T20:20:54.080Z,6.13
2018-01-25T20:23:21.685Z,6.27
2018-01-25T20:25:49.289Z,5.93
2018-01-25T20:28:16.874Z,5.97
2018-01-25T20:30:44.420Z,5.77
2018-01-25T20:33:12.058Z,5.57
2018-01-25T20:35:40.027Z,5.53
2018-01-25T20:38:07.641Z,5.93
2018-01-25T20:40:35.245Z,6.00
2018-01-25T20:43:02.783Z,6.80
2018-01-25T20:45:30.371Z,6.40
2018-01-25T20:47:57.980Z,6.77
2018-01-25T20:50:25.534Z,6.50
2018-01-25T20:52:53.160Z,6.97
2018-01-25T20:55:20.744Z,7.17
2018-01-25T20:57:48.323Z,6.50
2018-01-25T21:00:15.927Z,6.10
2018-01-25T21:05:11.085Z,6.30
2018-01-25T21:07:38.627Z,6.30
2018-01-25T21:10:06.290Z,6.27
2018-01-25T21:12:42.107Z,6.00
2018-01-25T21:15:09.932Z,6.47
2018-01-25T21:17:38.159Z,5.87
2018-01-25T21:20:06.010Z,7.03
2018-01-25T21:22:34.322Z,5.67
2018-01-25T21:25:02.049Z,5.87
2018-01-25T21:27:29.821Z,6.27
2018-01-25T21:30:03.537Z,6.33
2018-01-25T21:32:32.236Z,6.70
2018-01-25T21:35:00.097Z,6.07
2018-01-25T21:37:28.280Z,7.17
2018-01-25T21:39:55.962Z,5.93
2018-01-25T21:42:29.606Z,7.00
2018-01-25T21:44:57.331Z,7.27
2018-01-25T21:47:26.035Z,7.00
2018-01-25T21:49:55.250Z,6.77
2018-01-25T21:52:23.088Z,7.60
2018-01-25T21:54:51.631Z,6.40
2018-01-25T21:57:19.529Z,7.30
2018-01-25T21:59:47.369Z,6.03
2018-01-25T22:02:15.119Z,9.70
2018-01-25T22:04:43.237Z,6.50
2018-01-25T22:07:11.301Z,5.43
2018-01-25T22:09:39.264Z,6.50
2018-01-25T22:12:07.115Z,6.53
2018-01-25T22:14:35.950Z,5.43
2018-01-25T22:17:10.966Z,5.30
2018-01-25T22:19:38.612Z,5.17
2018-01-25T22:22:06.317Z,5.00
2018-01-25T22:24:34.391Z,5.30
2018-01-25T22:27:02.081Z,5.07
2018-01-25T22:29:29.775Z,5.53
2018-01-25T22:31:57.630Z,5.10
2018-01-25T22:34:25.406Z,5.67
2018-01-25T22:36:53.229Z,5.17
2018-01-25T22:39:20.994Z,5.47
2018-01-25T22:41:49.547Z,6.30
2018-01-25T22:44:18.956Z,11.10
2018-01-25T22:46:46.663Z,10.60
2018-01-25T22:49:15.302Z,8.00
2018-01-25T22:51:47.201Z,12.97
2018-01-25T22:54:20.738Z,8.27
2018-01-25T22:56:48.791Z,6.00
2018-01-25T22:59:16.474Z,8.30
2018-01-25T23:01:44.369Z,11.37
2018-01-25T23:04:12.320Z,9.13
2018-01-25T23:06:40.069Z,9.93
2018-01-25T23:09:08.691Z,13.03
2018-01-25T23:11:36.403Z,10.27
2018-01-25T23:14:04.212Z,5.63
2018-01-25T23:16:32.141Z,4.73
2018-01-25T23:19:00.248Z,4.47
2018-01-25T23:21:28.306Z,4.63
2018-01-25T23:23:56.134Z,5.83
2018-01-25T23:26:23.951Z,7.10
2018-01-25T23:28:53.185Z,7.63
2018-01-25T23:31:22.303Z,6.50
2018-01-25T23:33:53.550Z,5.07
2018-01-25T23:36:21.676Z,3.70
2018-01-25T23:38:50.103Z,4.67
2018-01-25T23:41:18.894Z,3.30
2018-01-25T23:43:48.173Z,4.17
2018-01-25T23:46:16.947Z,3.87
2018-01-25T23:48:44.764Z,4.17
2018-01-25T23:51:16.328Z,3.80
2018-01-25T23:53:45.666Z,4.07
2018-01-25T23:56:13.585Z,3.50
2018-01-25T23:58:41.700Z,3.20
